createdAt,value
2018-11-29T00:00:46.872Z,102234.88
2018-11-29T00:03:15.752Z,102228.94
2018-11-29T00:05:44.574Z,102228.84
2018-11-29T00:08:13.442Z,102223.03
2018-11-29T00:10:42.621Z,102234.38
2018-11-29T00:13:11.493Z,102234.64
2018-11-29T00:15:40.358Z,102215.88
2018-11-29T00:18:09.496Z,102217.56
2018-11-29T00:20:38.499Z,102226.41
2018-11-29T00:23:07.342Z,102226.02
2018-11-29T00:25:36.535Z,102218.61
2018-11-29T00:28:06.087Z,102227.33
2018-11-29T00:30:34.897Z,102215.63
2018-11-29T00:33:04.077Z,102217.30
2018-11-29T00:35:32.993Z,102209.27
2018-11-29T00:38:01.852Z,102212.74
2018-11-29T00:40:30.660Z,102211.83
2018-11-29T00:42:59.468Z,102209.59
2018-11-29T00:45:28.247Z,102207.56
2018-11-29T00:47:57.374Z,102209.66
2018-11-29T00:50:26.426Z,102213.36
2018-11-29T00:52:55.276Z,102216.25
2018-11-29T00:55:24.312Z,102221.49
2018-11-29T00:57:53.599Z,102209.39
2018-11-29T01:00:23.620Z,102212.70
2018-11-29T01:02:52.508Z,102205.63
2018-11-29T01:05:21.349Z,102203.92
2018-11-29T01:07:50.329Z,102213.49
2018-11-29T01:10:19.559Z,102208.88
2018-11-29T01:12:49.023Z,102204.08
2018-11-29T01:15:19.072Z,102201.72
2018-11-29T01:17:49.013Z,102198.34
2018-11-29T01:20:18.814Z,102207.25
2018-11-29T01:22:47.709Z,102208.33
2018-11-29T01:25:17.484Z,102208.17
2018-11-29T01:27:48.343Z,102201.03
2018-11-29T01:30:18.214Z,102192.25
2018-11-29T01:32:47.298Z,102197.78
2018-11-29T01:35:17.091Z,102187.36
2018-11-29T01:37:46.542Z,102177.27
2018-11-29T01:40:16.677Z,102175.46
2018-11-29T01:42:49.798Z,102178.21
2018-11-29T01:45:18.653Z,102175.65
2018-11-29T01:47:47.571Z,102164.05
2018-11-29T01:50:16.585Z,102166.02
2018-11-29T01:52:45.788Z,102155.01
2018-11-29T01:55:14.729Z,102155.41
2018-11-29T01:57:43.691Z,102152.00
2018-11-29T02:00:14.452Z,102151.20
2018-11-29T02:02:43.564Z,102141.97
2018-11-29T02:05:12.818Z,102139.67
2018-11-29T02:07:41.659Z,102131.87
2018-11-29T02:10:17.094Z,102132.50
2018-11-29T02:12:46.108Z,102133.12
2018-11-29T02:15:15.087Z,102118.19
2018-11-29T02:17:49.607Z,102125.78
2018-11-29T02:20:19.444Z,102116.84
2018-11-29T02:22:48.855Z,102122.83
2018-11-29T02:25:17.714Z,102112.97
2018-11-29T02:27:46.589Z,102112.45
2018-11-29T02:30:20.382Z,102097.11
2018-11-29T02:32:49.639Z,102105.73
2018-11-29T02:35:18.776Z,102114.80
2018-11-29T02:37:47.692Z,102104.65
2018-11-29T02:40:17.471Z,102107.83
2018-11-29T02:42:46.902Z,102103.27
2018-11-29T02:45:17.759Z,102112.94
2018-11-29T02:47:46.681Z,102116.02
2018-11-29T02:50:15.843Z,102123.23
2018-11-29T02:52:44.843Z,102123.85
2018-11-29T02:55:14.340Z,102129.42
2018-11-29T02:57:43.436Z,102117.79
2018-11-29T03:00:19.387Z,102111.53
2018-11-29T03:02:48.361Z,102099.38
2018-11-29T03:05:17.782Z,102099.11
2018-11-29T03:07:53.302Z,102093.94
2018-11-29T03:10:27.746Z,102095.70
2018-11-29T03:12:56.623Z,102103.80
2018-11-29T03:15:25.488Z,102096.95
2018-11-29T03:17:54.304Z,102094.09
2018-11-29T03:20:23.213Z,102096.75
2018-11-29T03:22:52.322Z,102096.62
2018-11-29T03:25:21.522Z,102100.55
2018-11-29T03:27:50.380Z,102109.27
2018-11-29T03:30:21.677Z,102091.77
2018-11-29T03:32:50.870Z,102103.89
2018-11-29T03:35:19.817Z,102099.97
2018-11-29T03:37:48.719Z,102091.38
2018-11-29T03:40:17.819Z,102096.62
2018-11-29T03:42:46.857Z,102101.05
2018-11-29T03:45:16.505Z,102097.87
2018-11-29T03:47:45.815Z,102092.89
2018-11-29T03:50:16.491Z,102100.75
2018-11-29T03:52:45.497Z,102089.16
2018-11-29T03:55:14.369Z,102084.77
2018-11-29T03:57:43.289Z,102094.72
2018-11-29T04:00:15.147Z,102089.78
2018-11-29T04:02:44.908Z,102099.73
2018-11-29T04:05:13.989Z,102090.33
2018-11-29T04:07:42.839Z,102080.44
2018-11-29T04:10:13.768Z,102082.31
2018-11-29T04:12:42.648Z,102080.44
2018-11-29T04:15:13.745Z,102075.98
2018-11-29T04:17:43.257Z,102077.75
2018-11-29T04:20:14.199Z,102078.53
2018-11-29T04:22:43.138Z,102081.16
2018-11-29T04:25:13.216Z,102077.55
2018-11-29T04:27:42.559Z,102093.02
2018-11-29T04:30:14.663Z,102083.91
2018-11-29T04:32:43.826Z,102089.96
2018-11-29T04:35:13.126Z,102093.94
2018-11-29T04:37:42.008Z,102089.70
2018-11-29T04:40:13.280Z,102091.38
2018-11-29T04:42:42.497Z,102087.09
2018-11-29T04:45:12.637Z,102073.84
2018-11-29T04:47:41.499Z,102058.25
2018-11-29T04:50:10.406Z,102056.94
2018-11-29T04:52:39.379Z,102064.45
2018-11-29T04:55:09.585Z,102065.36
2018-11-29T04:57:38.870Z,102060.20
2018-11-29T05:00:11.821Z,102058.11
2018-11-29T05:02:40.732Z,102046.71
2018-11-29T05:05:10.231Z,102051.25
2018-11-29T05:07:39.149Z,102051.42
2018-11-29T05:10:10.056Z,102053.27
2018-11-29T05:12:39.323Z,102045.00
2018-11-29T05:15:09.972Z,102040.55
2018-11-29T05:17:38.987Z,102037.86
2018-11-29T05:20:08.074Z,102028.88
2018-11-29T05:22:37.005Z,102034.91
2018-11-29T05:25:06.856Z,102039.45
2018-11-29T05:27:36.143Z,102037.76
2018-11-29T05:30:06.898Z,102040.77
2018-11-29T05:32:35.789Z,102028.58
2018-11-29T05:35:04.605Z,102035.31
2018-11-29T05:37:33.449Z,102030.23
2018-11-29T05:40:02.861Z,102035.08
2018-11-29T05:42:31.676Z,102030.61
2018-11-29T05:45:00.486Z,102040.10
2018-11-29T05:47:29.317Z,102040.77
2018-11-29T05:49:58.361Z,102044.39
2018-11-29T05:52:27.572Z,102047.33
2018-11-29T05:54:56.612Z,102039.98
2018-11-29T05:57:25.658Z,102043.33
2018-11-29T05:59:54.559Z,102044.65
2018-11-29T06:02:23.803Z,102043.47
2018-11-29T06:04:52.678Z,102036.92
2018-11-29T06:07:21.649Z,102026.28
2018-11-29T06:09:50.881Z,102019.41
2018-11-29T06:12:19.864Z,102027.91
2018-11-29T06:14:48.893Z,102019.97
2018-11-29T06:17:17.802Z,102016.95
2018-11-29T06:19:46.975Z,102028.81
2018-11-29T06:22:16.757Z,102021.03
2018-11-29T06:24:45.757Z,102022.95
2018-11-29T06:27:14.779Z,102017.24
2018-11-29T06:29:44.749Z,102023.34
2018-11-29T06:32:13.848Z,102031.59
2018-11-29T06:34:43.146Z,102037.37
2018-11-29T06:37:12.000Z,102018.56
2018-11-29T06:39:40.854Z,102020.59
2018-11-29T06:42:09.876Z,102008.25
2018-11-29T06:44:39.589Z,102012.72
2018-11-29T06:47:08.580Z,102015.41
2018-11-29T06:49:37.512Z,102005.92
2018-11-29T06:52:06.635Z,102012.87
2018-11-29T06:54:35.870Z,102004.08
2018-11-29T06:57:04.846Z,102001.52
2018-11-29T06:59:33.801Z,102007.55
2018-11-29T07:02:02.960Z,102011.01
2018-11-29T07:04:31.778Z,102006.94
2018-11-29T07:07:00.992Z,102010.09
2018-11-29T07:09:30.343Z,102013.49
2018-11-29T07:11:59.434Z,102007.93
2018-11-29T07:14:28.281Z,102006.23
2018-11-29T07:16:57.497Z,102007.55
2018-11-29T07:19:26.429Z,102006.95
2018-11-29T07:21:56.000Z,102004.31
2018-11-29T07:24:25.533Z,102008.53
2018-11-29T07:26:54.540Z,101996.59
2018-11-29T07:29:23.451Z,101993.20
2018-11-29T07:31:52.552Z,101994.66
2018-11-29T07:34:21.539Z,101999.90
2018-11-29T07:36:50.719Z,102000.85
2018-11-29T07:39:20.045Z,102001.59
2018-11-29T07:41:49.266Z,102003.83
2018-11-29T07:44:18.186Z,102006.85
2018-11-29T07:46:47.549Z,102008.41
2018-11-29T07:49:16.456Z,102003.69
2018-11-29T07:51:45.392Z,102007.23
2018-11-29T07:54:14.219Z,102004.09
2018-11-29T07:56:43.195Z,101993.52
2018-11-29T07:59:12.210Z,102001.82
2018-11-29T08:01:41.074Z,101985.87
2018-11-29T08:04:10.038Z,101979.77
2018-11-29T08:06:39.427Z,101975.59
2018-11-29T08:09:08.983Z,101984.09
2018-11-29T08:11:37.860Z,101984.55
2018-11-29T08:14:07.090Z,101975.58
2018-11-29T08:16:35.994Z,101977.73
2018-11-29T08:19:05.310Z,101980.89
2018-11-29T08:21:34.312Z,101976.80
2018-11-29T08:24:03.578Z,101967.44
2018-11-29T08:26:32.386Z,101969.45
2018-11-29T08:29:01.429Z,101969.19
2018-11-29T08:31:30.535Z,101958.92
2018-11-29T08:33:59.471Z,101962.53
2018-11-29T08:36:28.543Z,101954.16
2018-11-29T08:38:57.459Z,101940.27
2018-11-29T08:41:26.327Z,101944.09
2018-11-29T08:43:55.266Z,101952.17
2018-11-29T08:46:24.199Z,101951.45
2018-11-29T08:48:53.121Z,101952.37
2018-11-29T08:51:22.000Z,101960.22
2018-11-29T08:53:51.466Z,101950.59
2018-11-29T08:56:20.328Z,101957.20
2018-11-29T08:58:49.567Z,101957.17
2018-11-29T09:01:18.686Z,101952.80
2018-11-29T09:03:48.055Z,101939.86
2018-11-29T09:06:17.096Z,101946.42
2018-11-29T09:08:46.479Z,101950.95
2018-11-29T09:11:15.481Z,101943.57
2018-11-29T09:13:44.342Z,101937.93
2018-11-29T09:16:13.119Z,101937.89
2018-11-29T09:18:42.440Z,101950.25
2018-11-29T09:21:11.354Z,101954.70
2018-11-29T09:23:40.211Z,101948.02
2018-11-29T09:26:09.632Z,101941.27
2018-11-29T09:28:38.603Z,101938.21
2018-11-29T09:31:07.496Z,101918.33
2018-11-29T09:33:36.372Z,101907.94
2018-11-29T09:36:05.605Z,101910.78
2018-11-29T09:38:34.882Z,101910.39
2018-11-29T09:41:03.754Z,101907.83
2018-11-29T09:43:32.749Z,101904.13
2018-11-29T09:46:01.666Z,101902.53
2018-11-29T09:48:30.717Z,101899.91
2018-11-29T09:51:00.192Z,101878.41
2018-11-29T09:53:29.241Z,101877.08
2018-11-29T09:55:58.907Z,101871.10
2018-11-29T09:58:28.090Z,101871.28
2018-11-29T10:00:57.954Z,101864.70
2018-11-29T10:03:27.117Z,101868.09
2018-11-29T10:05:56.119Z,101871.66
2018-11-29T10:08:26.191Z,101863.76
2018-11-29T10:10:54.440Z,101866.19
2018-11-29T10:13:23.865Z,101872.75
2018-11-29T10:15:52.965Z,101869.02
2018-11-29T10:18:22.139Z,101862.62
2018-11-29T10:20:51.691Z,101849.67
2018-11-29T10:23:21.444Z,101856.42
2018-11-29T10:25:50.461Z,101842.34
2018-11-29T10:28:20.117Z,101836.32
2018-11-29T10:30:53.663Z,101832.58
2018-11-29T10:33:22.626Z,101831.81
2018-11-29T10:35:51.508Z,101830.70
2018-11-29T10:38:20.821Z,101818.58
2018-11-29T10:40:49.839Z,101810.38
2018-11-29T10:43:19.064Z,101817.89
2018-11-29T10:45:48.538Z,101797.06
2018-11-29T10:48:22.905Z,101807.47
2018-11-29T10:50:51.843Z,101796.98
2018-11-29T10:53:20.859Z,101806.27
2018-11-29T10:55:50.175Z,101796.13
2018-11-29T10:58:19.355Z,101801.75
2018-11-29T11:00:53.835Z,101802.22
2018-11-29T11:03:22.817Z,101808.30
2018-11-29T11:05:53.091Z,101793.25
2018-11-29T11:08:22.486Z,101796.03
2018-11-29T11:10:52.216Z,101794.06
2018-11-29T11:13:21.594Z,101790.20
2018-11-29T11:15:50.682Z,101780.67
2018-11-29T11:18:19.779Z,101780.04
2018-11-29T11:20:48.806Z,101775.03
2018-11-29T11:23:17.774Z,101776.46
2018-11-29T11:25:46.866Z,101767.52
2018-11-29T11:28:16.003Z,101773.16
2018-11-29T11:30:45.496Z,101777.92
2018-11-29T11:33:14.766Z,101786.22
2018-11-29T11:35:44.196Z,101792.11
2018-11-29T11:38:13.186Z,101784.89
2018-11-29T11:40:42.583Z,101772.19
2018-11-29T11:43:12.769Z,101766.08
2018-11-29T11:45:42.126Z,101777.84
2018-11-29T11:48:11.145Z,101772.23
2018-11-29T11:50:40.376Z,101754.83
2018-11-29T11:53:10.091Z,101757.56
2018-11-29T11:55:39.123Z,101749.56
2018-11-29T11:58:09.224Z,101744.38
2018-11-29T12:00:38.832Z,101741.55
2018-11-29T12:03:12.971Z,101742.63
2018-11-29T12:05:43.148Z,101731.28
2018-11-29T12:08:13.134Z,101726.63
2018-11-29T12:10:43.687Z,101730.44
2018-11-29T12:13:12.998Z,101719.74
2018-11-29T12:15:42.032Z,101726.85
2018-11-29T12:18:12.193Z,101731.18
2018-11-29T12:20:41.259Z,101723.70
2018-11-29T12:23:10.344Z,101716.16
2018-11-29T12:25:39.213Z,101724.78
2018-11-29T12:28:08.182Z,101708.39
2018-11-29T12:30:39.672Z,101703.95
2018-11-29T12:33:08.860Z,101698.47
2018-11-29T12:35:38.048Z,101704.35
2018-11-29T12:38:07.494Z,101734.45
2018-11-29T12:40:36.829Z,101713.55
2018-11-29T12:43:06.797Z,101712.66
2018-11-29T12:45:35.894Z,101707.96
2018-11-29T12:48:05.972Z,101691.09
2018-11-29T12:50:38.835Z,101677.94
2018-11-29T12:53:08.494Z,101670.41
2018-11-29T12:55:40.287Z,101667.86
2018-11-29T12:58:09.194Z,101673.98
2018-11-29T13:00:38.085Z,101666.38
2018-11-29T13:05:38.098Z,101657.81
2018-11-29T13:08:08.301Z,101656.70
2018-11-29T13:10:37.232Z,101679.88
2018-11-29T13:13:06.972Z,101678.28
2018-11-29T13:15:35.987Z,101673.34
2018-11-29T13:18:06.538Z,101671.21
2018-11-29T13:20:35.814Z,101673.92
2018-11-29T13:23:05.245Z,101666.31
2018-11-29T13:25:34.146Z,101661.41
2018-11-29T13:28:03.079Z,101657.81
2018-11-29T13:30:32.021Z,101654.33
2018-11-29T13:33:00.852Z,101649.16
2018-11-29T13:35:33.881Z,101653.96
2018-11-29T13:38:16.560Z,101655.14
2018-11-29T13:40:47.602Z,101651.97
2018-11-29T13:43:16.965Z,101645.58
2018-11-29T13:45:45.813Z,101641.86
2018-11-29T13:48:14.950Z,101642.06
2018-11-29T13:50:43.775Z,101644.19
2018-11-29T13:53:12.637Z,101624.41
2018-11-29T13:55:41.746Z,101620.08
2018-11-29T13:58:10.590Z,101622.48
2018-11-29T14:00:39.640Z,101621.88
2018-11-29T14:03:12.812Z,101605.41
2018-11-29T14:05:41.799Z,101609.73
2018-11-29T14:08:11.213Z,101610.84
2018-11-29T14:10:41.800Z,101605.20
2018-11-29T14:13:10.815Z,101599.45
2018-11-29T14:15:39.927Z,101603.38
2018-11-29T14:18:09.054Z,101595.09
2018-11-29T14:20:37.988Z,101589.21
2018-11-29T14:23:07.062Z,101582.89
2018-11-29T14:25:35.998Z,101583.60
2018-11-29T14:28:04.921Z,101592.97
2018-11-29T14:30:34.158Z,101605.17
2018-11-29T14:33:03.209Z,101620.52
2018-11-29T14:35:32.161Z,101622.63
2018-11-29T14:38:02.374Z,101623.20
2018-11-29T14:40:34.464Z,101616.57
2018-11-29T14:43:03.477Z,101615.11
2018-11-29T14:45:32.628Z,101605.52
2018-11-29T14:48:01.666Z,101592.09
2018-11-29T14:50:32.968Z,101594.83
2018-11-29T14:53:02.047Z,101591.22
2018-11-29T14:55:31.042Z,101591.16
2018-11-29T14:57:59.921Z,101595.81
2018-11-29T15:00:28.928Z,101598.45
2018-11-29T15:02:58.954Z,101598.45
2018-11-29T15:05:29.456Z,101597.23
2018-11-29T15:07:58.378Z,101593.18
2018-11-29T15:10:27.478Z,101597.71
2018-11-29T15:12:56.321Z,101595.41
2018-11-29T15:15:25.282Z,101606.47
2018-11-29T15:17:54.882Z,101599.27
2018-11-29T15:20:29.150Z,101594.94
2018-11-29T15:22:58.127Z,101603.93
2018-11-29T15:25:27.332Z,101593.62
2018-11-29T15:27:56.645Z,101584.77
2018-11-29T15:30:25.833Z,101588.34
2018-11-29T15:32:54.955Z,101599.84
2018-11-29T15:35:23.924Z,101604.63
2018-11-29T15:37:52.974Z,101598.85
2018-11-29T15:40:22.351Z,101596.63
2018-11-29T15:42:51.455Z,101606.27
2018-11-29T15:45:23.048Z,101599.30
2018-11-29T15:47:52.209Z,101602.78
2018-11-29T15:50:21.338Z,101594.62
2018-11-29T15:52:50.767Z,101591.93
2018-11-29T15:55:21.374Z,101587.33
2018-11-29T15:57:51.475Z,101591.83
2018-11-29T16:00:24.024Z,101603.48
2018-11-29T16:02:53.577Z,101601.36
2018-11-29T16:05:22.550Z,101600.52
2018-11-29T16:07:51.622Z,101596.09
2018-11-29T16:10:21.765Z,101599.30
2018-11-29T16:12:50.835Z,101597.50
2018-11-29T16:15:20.486Z,101601.05
2018-11-29T16:17:50.730Z,101601.80
2018-11-29T16:20:23.738Z,101592.77
2018-11-29T16:22:52.815Z,101592.00
2018-11-29T16:25:21.710Z,101586.42
2018-11-29T16:27:50.580Z,101583.41
2018-11-29T16:30:55.351Z,101582.90
2018-11-29T16:33:27.736Z,101581.58
2018-11-29T16:35:56.766Z,101581.34
2018-11-29T16:38:25.974Z,101584.92
2018-11-29T16:40:55.009Z,101578.00
2018-11-29T16:43:23.940Z,101571.04
2018-11-29T16:45:52.967Z,101567.28
2018-11-29T16:48:22.240Z,101561.41
2018-11-29T16:50:51.119Z,101555.02
2018-11-29T16:53:20.168Z,101557.55
2018-11-29T16:55:49.561Z,101546.23
2018-11-29T16:58:20.799Z,101542.58
2018-11-29T17:00:49.703Z,101543.22
2018-11-29T17:03:19.296Z,101530.39
2018-11-29T17:05:48.668Z,101522.69
2018-11-29T17:08:17.672Z,101522.31
2018-11-29T17:10:46.965Z,101535.58
2018-11-29T17:13:18.452Z,101540.00
2018-11-29T17:15:47.709Z,101536.11
2018-11-29T17:18:17.143Z,101537.76
2018-11-29T17:20:46.431Z,101539.08
2018-11-29T17:23:15.546Z,101529.22
2018-11-29T17:25:44.931Z,101529.44
2018-11-29T17:28:13.922Z,101520.05
2018-11-29T17:30:42.932Z,101514.78
2018-11-29T17:33:12.424Z,101520.66
2018-11-29T17:35:41.289Z,101515.39
2018-11-29T17:38:10.592Z,101518.73
2018-11-29T17:40:39.899Z,101517.05
2018-11-29T17:43:09.314Z,101516.86
2018-11-29T17:45:39.035Z,101510.64
2018-11-29T17:48:10.069Z,101514.84
2018-11-29T17:50:40.519Z,101527.63
2018-11-29T17:53:09.638Z,101526.31
2018-11-29T17:55:38.545Z,101516.02
2018-11-29T17:58:17.093Z,101520.33
2018-11-29T18:00:47.687Z,101509.80
2018-11-29T18:03:19.186Z,101500.64
2018-11-29T18:05:48.067Z,101504.96
2018-11-29T18:08:16.936Z,101512.68
2018-11-29T18:10:46.785Z,101501.58
2018-11-29T18:13:24.740Z,101515.22
2018-11-29T18:15:53.893Z,101510.05
2018-11-29T18:18:22.887Z,101500.17
2018-11-29T18:20:51.738Z,101493.31
2018-11-29T18:23:20.863Z,101498.72
2018-11-29T18:25:50.370Z,101498.63
2018-11-29T18:28:19.573Z,101490.26
2018-11-29T18:30:48.996Z,101489.61
2018-11-29T18:33:18.144Z,101485.61
2018-11-29T18:35:47.082Z,101485.19
2018-11-29T18:38:15.948Z,101485.09
2018-11-29T18:40:44.865Z,101493.93
2018-11-29T18:43:13.683Z,101476.63
2018-11-29T18:45:42.638Z,101467.41
2018-11-29T18:48:12.242Z,101464.31
2018-11-29T18:50:41.213Z,101463.42
2018-11-29T18:53:10.118Z,101463.84
2018-11-29T18:55:39.009Z,101466.82
2018-11-29T18:58:08.610Z,101461.08
2018-11-29T19:00:38.475Z,101462.03
2018-11-29T19:03:08.405Z,101459.45
2018-11-29T19:05:37.787Z,101468.66
2018-11-29T19:08:08.165Z,101470.58
2018-11-29T19:10:37.119Z,101461.19
2018-11-29T19:13:10.312Z,101472.17
2018-11-29T19:15:39.242Z,101461.93
2018-11-29T19:18:10.631Z,101453.86
2018-11-29T19:20:38.681Z,101450.85
2018-11-29T19:23:07.869Z,101451.45
2018-11-29T19:25:37.214Z,101447.88
2018-11-29T19:28:06.862Z,101441.30
2018-11-29T19:30:36.159Z,101441.50
2018-11-29T19:33:17.388Z,101440.28
2018-11-29T19:35:43.881Z,101446.76
2018-11-29T19:38:12.926Z,101446.29
2018-11-29T19:40:42.312Z,101443.14
2018-11-29T19:43:11.525Z,101443.00
2018-11-29T19:45:40.989Z,101439.76
2018-11-29T19:48:11.219Z,101430.83
2018-11-29T19:50:40.298Z,101426.18
2018-11-29T19:53:16.494Z,101417.50
2018-11-29T19:55:46.077Z,101422.61
2018-11-29T19:58:15.557Z,101428.24
2018-11-29T20:00:44.708Z,101417.72
2018-11-29T20:03:13.794Z,101426.33
2018-11-29T20:05:42.826Z,101420.45
2018-11-29T20:08:12.515Z,101422.43
2018-11-29T20:10:42.058Z,101414.54
2018-11-29T20:13:13.626Z,101422.05
2018-11-29T20:15:44.544Z,101414.77
2018-11-29T20:18:14.463Z,101415.70
2018-11-29T20:20:43.592Z,101414.16
2018-11-29T20:23:13.536Z,101411.02
2018-11-29T20:25:45.131Z,101407.63
2018-11-29T20:28:15.391Z,101413.49
2018-11-29T20:30:45.573Z,101403.69
2018-11-29T20:33:14.742Z,101404.06
2018-11-29T20:35:44.059Z,101392.92
2018-11-29T20:38:13.003Z,101389.97
2018-11-29T20:40:43.374Z,101388.98
2018-11-29T20:43:12.241Z,101384.02
2018-11-29T20:45:52.734Z,101392.50
2018-11-29T20:48:26.035Z,101392.00
2018-11-29T20:50:56.215Z,101391.66
2018-11-29T20:53:27.172Z,101378.56
2018-11-29T20:55:59.184Z,101384.77
2018-11-29T20:58:28.219Z,101378.98
2018-11-29T21:00:57.564Z,101376.22
2018-11-29T21:03:26.947Z,101385.92
2018-11-29T21:05:55.884Z,101378.61
2018-11-29T21:08:24.861Z,101377.34
2018-11-29T21:10:53.727Z,101376.96
2018-11-29T21:13:22.808Z,101377.80
2018-11-29T21:15:51.702Z,101377.86
2018-11-29T21:18:20.669Z,101371.56
2018-11-29T21:20:49.884Z,101365.66
2018-11-29T21:23:19.451Z,101367.91
2018-11-29T21:25:48.764Z,101365.66
2018-11-29T21:28:17.753Z,101363.91
2018-11-29T21:30:46.693Z,101370.70
2018-11-29T21:33:15.713Z,101367.95
2018-11-29T21:35:46.074Z,101357.14
2018-11-29T21:38:17.533Z,101361.38
2018-11-29T21:40:51.259Z,101351.09
2018-11-29T21:43:20.357Z,101350.72
2018-11-29T21:45:49.420Z,101339.50
2018-11-29T21:48:18.865Z,101342.03
2018-11-29T21:50:48.092Z,101337.20
2018-11-29T21:53:17.181Z,101333.11
2018-11-29T21:55:46.586Z,101330.62
2018-11-29T21:58:15.891Z,101324.16
2018-11-29T22:00:45.961Z,101323.27
2018-11-29T22:03:15.439Z,101321.95
2018-11-29T22:05:44.464Z,101320.06
2018-11-29T22:08:13.605Z,101311.44
2018-11-29T22:10:42.996Z,101313.02
2018-11-29T22:13:12.003Z,101311.61
2018-11-29T22:15:41.113Z,101310.30
2018-11-29T22:18:13.707Z,101304.66
2018-11-29T22:20:42.686Z,101301.94
2018-11-29T22:23:11.615Z,101303.02
2018-11-29T22:25:40.972Z,101308.19
2018-11-29T22:28:10.012Z,101304.44
2018-11-29T22:30:38.882Z,101293.97
2018-11-29T22:33:07.915Z,101290.03
2018-11-29T22:35:36.827Z,101280.78
2018-11-29T22:38:06.240Z,101271.44
2018-11-29T22:40:35.275Z,101274.44
2018-11-29T22:43:04.264Z,101285.94
2018-11-29T22:45:33.476Z,101287.58
2018-11-29T22:48:02.757Z,101305.41
2018-11-29T22:50:31.628Z,101322.31
2018-11-29T22:53:00.582Z,101344.56
2018-11-29T22:55:29.554Z,101353.95
2018-11-29T22:57:58.388Z,101343.62
2018-11-29T23:00:31.940Z,101357.24
2018-11-29T23:03:01.118Z,101364.61
2018-11-29T23:05:30.540Z,101372.64
2018-11-29T23:08:00.809Z,101365.13
2018-11-29T23:10:30.097Z,101359.08
2018-11-29T23:12:58.974Z,101359.45
2018-11-29T23:15:27.961Z,101357.00
2018-11-29T23:17:57.234Z,101349.73
2018-11-29T23:20:26.321Z,101351.14
2018-11-29T23:22:55.206Z,101362.22
2018-11-29T23:25:24.149Z,101369.27
2018-11-29T23:27:53.199Z,101369.45
2018-11-29T23:30:22.178Z,101366.55
2018-11-29T23:32:51.493Z,101360.20
2018-11-29T23:35:20.340Z,101350.85
2018-11-29T23:37:49.709Z,101334.60
2018-11-29T23:40:18.827Z,101325.27
2018-11-29T23:42:47.831Z,101324.19
2018-11-29T23:45:16.982Z,101312.06
2018-11-29T23:47:46.117Z,101315.02
2018-11-29T23:50:17.609Z,101331.84
2018-11-29T23:52:46.865Z,101326.27
2018-11-29T23:55:20.053Z,101314.61
2018-11-29T23:57:49.025Z,101318.83
